Franconia, New Hampshire
Current Conditions -  °F | °C
As of 11:52 AM on Wednesday 26 Nov 2014 (Local Time) from KHIE Reporting Station
Overcast Overcast  
Wind Chill: 34°   Ceiling: 8500
Heat Index: 34°   Visibility: 10mi
Dew Point: 22°   Wind: 0mph
Humidity: 61%   Direction: NA
Pressure: 30.13"   Gusts: NA
Location:  44.23°N, 71.75°W
Report Text: KHIE 261652Z AUTO 00000KT 10SM FEW065 OVC085 01/M06 A3013 RMK AO2 SLP216 T00111056
Loading
Personal Weather Stations






























Interactive Weather Map New forecast layout! Learn more

10-Day Weather Forecast

Advertisements
Track Severe Weather on mobile